createdAt,value
2023-05-18T00:00:54.312Z,11.65
2023-05-18T00:03:21.599Z,11.63
2023-05-18T00:05:49.389Z,11.60
2023-05-18T00:08:16.148Z,11.65
2023-05-18T00:10:42.981Z,11.62
2023-05-18T00:13:09.786Z,11.60
2023-05-18T00:15:36.653Z,11.59
2023-05-18T00:18:03.655Z,11.73
2023-05-18T00:20:30.412Z,11.80
2023-05-18T00:22:57.224Z,11.79
2023-05-18T00:25:24.401Z,11.76
2023-05-18T00:27:52.189Z,11.78
2023-05-18T00:30:19.224Z,11.77
2023-05-18T00:32:46.111Z,11.85
2023-05-18T00:35:13.005Z,11.90
2023-05-18T00:37:39.809Z,11.98
2023-05-18T00:40:07.411Z,12.05
2023-05-18T00:42:34.262Z,12.12
2023-05-18T00:45:01.528Z,12.14
2023-05-18T00:47:28.528Z,12.15
2023-05-18T00:49:55.494Z,12.13
2023-05-18T00:52:23.782Z,12.09
2023-05-18T00:54:51.773Z,12.19
2023-05-18T00:57:19.333Z,12.20
2023-05-18T00:59:49.849Z,12.19
2023-05-18T01:02:17.135Z,12.21
2023-05-18T01:04:43.820Z,12.33
2023-05-18T01:07:11.453Z,12.33
2023-05-18T01:09:38.975Z,12.35
2023-05-18T01:12:11.985Z,12.33
2023-05-18T01:15:03.758Z,12.30
2023-05-18T01:17:55.450Z,12.29
2023-05-18T01:20:41.590Z,12.38
2023-05-18T01:23:29.769Z,12.39
2023-05-18T01:25:56.617Z,12.36
2023-05-18T01:28:28.750Z,12.42
2023-05-18T01:30:57.118Z,12.43
2023-05-18T01:33:25.303Z,12.39
2023-05-18T01:35:54.581Z,12.45
2023-05-18T01:38:25.851Z,12.44
2023-05-18T01:41:17.555Z,12.48
2023-05-18T01:43:53.525Z,12.49
2023-05-18T01:46:55.551Z,12.52
2023-05-18T01:49:34.492Z,12.51
2023-05-18T01:52:06.962Z,12.52
2023-05-18T01:54:36.460Z,12.53
2023-05-18T01:59:33.879Z,12.61
2023-05-18T02:02:01.609Z,12.61
2023-05-18T02:04:31.632Z,12.62
2023-05-18T02:06:58.459Z,12.62
2023-05-18T02:09:25.208Z,12.62
2023-05-18T02:11:59.337Z,12.63
2023-05-18T02:14:26.684Z,12.63
2023-05-18T02:16:54.717Z,12.63
2023-05-18T02:19:22.420Z,12.68
2023-05-18T02:21:49.251Z,12.67
2023-05-18T02:24:17.865Z,12.63
2023-05-18T02:26:45.113Z,12.64
2023-05-18T02:29:12.166Z,12.70
2023-05-18T02:31:39.318Z,12.69
2023-05-18T02:34:06.891Z,12.69
2023-05-18T02:36:40.457Z,12.68
2023-05-18T02:39:08.063Z,12.69
2023-05-18T02:41:35.966Z,12.67
2023-05-18T02:44:06.019Z,12.63
2023-05-18T02:46:35.297Z,12.53
2023-05-18T02:49:02.209Z,12.49
2023-05-18T02:51:30.473Z,12.46
2023-05-18T02:53:57.730Z,12.43
2023-05-18T02:56:24.873Z,12.43
2023-05-18T02:58:58.136Z,12.46
2023-05-18T03:01:28.383Z,12.44
2023-05-18T03:03:58.032Z,12.43
2023-05-18T03:06:30.507Z,12.31
2023-05-18T03:08:57.392Z,12.29
2023-05-18T03:11:26.976Z,12.28
2023-05-18T03:13:54.943Z,12.31
2023-05-18T03:16:21.721Z,12.28
2023-05-18T03:18:49.054Z,12.24
2023-05-18T03:21:16.789Z,12.22
2023-05-18T03:23:43.627Z,12.26
2023-05-18T03:26:11.918Z,12.35
2023-05-18T03:28:39.538Z,12.25
2023-05-18T03:31:06.670Z,12.31
2023-05-18T03:33:33.647Z,12.30
2023-05-18T03:36:05.084Z,12.37
2023-05-18T03:38:32.129Z,12.44
2023-05-18T03:40:59.065Z,12.49
2023-05-18T03:43:26.195Z,12.55
2023-05-18T03:45:55.645Z,12.55
2023-05-18T03:48:24.069Z,12.55
2023-05-18T03:50:51.158Z,12.66
2023-05-18T03:53:24.153Z,12.72
2023-05-18T03:55:51.951Z,12.74
2023-05-18T03:58:21.412Z,12.74
2023-05-18T04:00:49.691Z,12.77
2023-05-18T04:03:16.841Z,12.88
2023-05-18T04:05:43.799Z,12.89
2023-05-18T04:08:14.654Z,13.00
2023-05-18T04:10:43.397Z,13.07
2023-05-18T04:13:10.778Z,13.07
2023-05-18T04:15:38.383Z,13.14
2023-05-18T04:18:07.380Z,13.18
2023-05-18T04:20:34.364Z,13.19
2023-05-18T04:23:01.288Z,13.25
2023-05-18T04:25:28.663Z,13.33
2023-05-18T04:27:56.509Z,13.35
2023-05-18T04:30:26.784Z,13.56
2023-05-18T04:32:54.909Z,13.57
2023-05-18T04:35:22.165Z,13.64
2023-05-18T04:37:48.963Z,13.79
2023-05-18T04:40:18.390Z,13.81
2023-05-18T04:42:48.291Z,13.84
2023-05-18T04:45:19.718Z,13.81
2023-05-18T04:47:53.632Z,13.86
2023-05-18T04:50:23.986Z,13.92
2023-05-18T04:52:52.086Z,13.98
2023-05-18T04:55:23.472Z,14.01
2023-05-18T04:57:50.945Z,14.01
2023-05-18T05:00:18.484Z,14.02
2023-05-18T05:02:45.519Z,14.08
2023-05-18T05:05:12.727Z,14.14
2023-05-18T05:07:39.649Z,14.20
2023-05-18T05:10:07.113Z,14.26
2023-05-18T05:12:36.957Z,14.32
2023-05-18T05:15:04.098Z,14.37
2023-05-18T05:17:31.084Z,14.38
2023-05-18T05:19:57.869Z,14.40
2023-05-18T05:22:24.832Z,14.43
2023-05-18T05:24:52.068Z,14.40
2023-05-18T05:27:19.966Z,14.40
2023-05-18T05:29:47.599Z,14.46
2023-05-18T05:32:14.492Z,14.53
2023-05-18T05:34:44.479Z,14.56
2023-05-18T05:37:11.299Z,14.57
2023-05-18T05:39:38.070Z,14.52
2023-05-18T05:42:06.102Z,14.48
2023-05-18T05:44:33.029Z,14.49
2023-05-18T05:46:59.987Z,14.51
2023-05-18T05:49:27.186Z,14.60
2023-05-18T05:51:54.072Z,14.71
2023-05-18T05:54:21.393Z,14.79
2023-05-18T05:56:57.309Z,14.85
2023-05-18T05:59:27.964Z,14.94
2023-05-18T06:01:54.985Z,15.02
2023-05-18T06:04:22.130Z,15.13
2023-05-18T06:06:49.590Z,15.36
2023-05-18T06:09:21.949Z,15.55
2023-05-18T06:11:48.898Z,15.75
2023-05-18T06:14:16.361Z,15.83
2023-05-18T06:16:43.670Z,15.96
2023-05-18T06:19:14.238Z,16.00
2023-05-18T06:21:48.826Z,16.04
2023-05-18T06:24:20.130Z,15.95
2023-05-18T06:26:53.405Z,15.82
2023-05-18T06:29:21.863Z,15.75
2023-05-18T06:31:49.073Z,15.69
2023-05-18T06:34:19.551Z,15.71
2023-05-18T06:39:53.524Z,15.88
2023-05-18T06:42:20.637Z,16.04
2023-05-18T06:44:50.798Z,16.06
2023-05-18T06:47:18.442Z,16.03
2023-05-18T06:49:46.158Z,15.85
2023-05-18T06:52:17.321Z,15.84
2023-05-18T06:54:53.366Z,15.92
2023-05-18T06:57:23.086Z,16.04
2023-05-18T06:59:53.991Z,16.17
2023-05-18T07:02:23.177Z,16.24
2023-05-18T07:04:50.847Z,16.35
2023-05-18T07:07:24.045Z,16.53
2023-05-18T07:09:51.022Z,16.49
2023-05-18T07:12:18.425Z,16.59
2023-05-18T07:14:46.073Z,16.69
2023-05-18T07:17:15.212Z,16.68
2023-05-18T07:19:47.434Z,16.77
2023-05-18T07:22:14.965Z,16.83
2023-05-18T07:24:42.338Z,16.86
2023-05-18T07:27:12.726Z,16.81
2023-05-18T07:29:43.047Z,16.87
2023-05-18T07:32:22.105Z,17.03
2023-05-18T07:34:55.760Z,17.07
2023-05-18T07:37:23.101Z,17.20
2023-05-18T07:39:49.983Z,17.36
2023-05-18T07:42:18.617Z,17.56
2023-05-18T07:44:49.542Z,17.75
2023-05-18T07:47:29.964Z,17.70
2023-05-18T07:49:57.133Z,17.79
2023-05-18T07:52:24.220Z,17.75
2023-05-18T07:54:53.347Z,17.68
2023-05-18T07:57:24.036Z,17.59
2023-05-18T07:59:51.573Z,17.24
2023-05-18T08:03:06.012Z,16.98
2023-05-18T08:05:33.390Z,16.77
2023-05-18T08:08:00.990Z,16.57
2023-05-18T08:10:31.014Z,16.33
2023-05-18T08:12:58.816Z,16.14
2023-05-18T08:15:25.783Z,15.94
2023-05-18T08:17:57.579Z,15.83
2023-05-18T08:20:26.479Z,15.78
2023-05-18T08:22:57.885Z,15.71
2023-05-18T08:25:26.124Z,15.59
2023-05-18T08:27:54.045Z,15.53
2023-05-18T08:30:21.956Z,15.37
2023-05-18T08:32:52.308Z,15.38
2023-05-18T08:35:20.557Z,15.35
2023-05-18T08:37:50.702Z,15.38
2023-05-18T08:40:21.901Z,15.40
2023-05-18T08:43:02.192Z,15.47
2023-05-18T08:45:55.407Z,15.47
2023-05-18T08:48:28.438Z,15.53
2023-05-18T08:50:59.238Z,15.54
2023-05-18T08:53:27.293Z,15.58
2023-05-18T08:55:54.820Z,15.66
2023-05-18T08:58:35.223Z,15.64
2023-05-18T09:01:02.961Z,15.76
2023-05-18T09:03:30.104Z,15.74
2023-05-18T09:06:01.294Z,15.79
2023-05-18T09:08:29.613Z,15.90
2023-05-18T09:10:59.345Z,16.07
2023-05-18T09:13:27.288Z,16.17
2023-05-18T09:15:54.219Z,16.26
2023-05-18T09:18:23.893Z,16.45
2023-05-18T09:20:52.308Z,16.63
2023-05-18T09:23:19.242Z,16.57
2023-05-18T09:25:50.129Z,16.57
2023-05-18T09:28:38.977Z,16.62
2023-05-18T09:31:09.149Z,16.63
2023-05-18T09:33:38.967Z,16.68
2023-05-18T09:36:07.462Z,16.72
2023-05-18T09:38:39.037Z,16.67
2023-05-18T09:41:11.444Z,16.61
2023-05-18T09:43:39.446Z,16.60
2023-05-18T09:46:08.332Z,16.74
2023-05-18T09:48:43.018Z,16.82
2023-05-18T09:51:17.208Z,16.78
2023-05-18T09:54:07.592Z,16.68
2023-05-18T09:56:39.141Z,16.64
2023-05-18T09:59:11.522Z,16.53
2023-05-18T10:01:56.893Z,16.33
2023-05-18T10:04:24.148Z,16.19
2023-05-18T10:06:52.277Z,16.11
2023-05-18T10:09:19.983Z,16.14
2023-05-18T10:11:46.807Z,16.10
2023-05-18T10:14:14.216Z,16.07
2023-05-18T10:16:43.444Z,16.02
2023-05-18T10:19:13.150Z,15.98
2023-05-18T10:21:43.233Z,15.96
2023-05-18T10:24:16.598Z,15.78
2023-05-18T10:26:50.607Z,15.54
2023-05-18T10:29:21.997Z,15.34
2023-05-18T10:31:51.248Z,15.33
2023-05-18T10:34:23.369Z,15.37
2023-05-18T10:36:50.681Z,15.52
2023-05-18T10:39:18.706Z,15.61
2023-05-18T10:41:47.064Z,15.80
2023-05-18T10:44:14.957Z,16.06
2023-05-18T10:46:43.376Z,16.29
2023-05-18T10:49:13.787Z,16.29
2023-05-18T10:51:46.451Z,16.28
2023-05-18T10:54:14.932Z,16.22
2023-05-18T10:56:44.999Z,16.18
2023-05-18T10:59:16.576Z,16.27
2023-05-18T11:01:45.215Z,16.37
2023-05-18T11:04:15.804Z,16.55
2023-05-18T11:06:43.135Z,16.58
2023-05-18T11:09:26.802Z,16.69
2023-05-18T11:11:57.122Z,16.80
2023-05-18T11:14:30.931Z,16.93
2023-05-18T11:17:24.338Z,16.93
2023-05-18T11:20:09.495Z,16.90
2023-05-18T11:23:02.253Z,16.93
2023-05-18T11:25:29.598Z,16.82
2023-05-18T11:28:06.347Z,16.81
2023-05-18T11:30:40.902Z,16.86
2023-05-18T11:36:23.930Z,16.78
2023-05-18T11:39:00.141Z,16.83
2023-05-18T11:41:47.551Z,16.76
2023-05-18T11:44:15.482Z,16.66
2023-05-18T11:47:03.739Z,16.47
2023-05-18T11:49:36.858Z,16.38
2023-05-18T11:52:06.920Z,16.33
2023-05-18T11:54:39.382Z,16.23
2023-05-18T11:57:08.233Z,16.12
2023-05-18T11:59:39.743Z,16.09
2023-05-18T12:02:08.269Z,16.12
2023-05-18T12:04:47.135Z,16.20
2023-05-18T12:07:20.446Z,16.25
2023-05-18T12:12:30.745Z,16.32
2023-05-18T12:15:01.295Z,16.31
2023-05-18T12:17:46.332Z,16.38
2023-05-18T12:20:19.575Z,16.37
2023-05-18T12:22:55.017Z,16.34
2023-05-18T12:25:27.219Z,16.34
2023-05-18T12:27:55.281Z,16.34
2023-05-18T12:30:37.282Z,16.28
2023-05-18T12:33:05.325Z,16.22
2023-05-18T12:35:33.934Z,16.12
2023-05-18T12:38:02.258Z,16.08
2023-05-18T12:40:48.071Z,15.99
2023-05-18T12:43:15.647Z,15.97
2023-05-18T12:45:45.357Z,15.75
2023-05-18T12:48:13.569Z,15.55
2023-05-18T12:50:54.589Z,15.20
2023-05-18T12:53:55.164Z,15.09
2023-05-18T12:56:13.635Z,14.91
2023-05-18T12:58:55.390Z,14.84
2023-05-18T13:01:25.337Z,14.89
2023-05-18T13:04:02.016Z,14.92
2023-05-18T13:06:44.097Z,15.05
2023-05-18T13:09:17.490Z,15.22
2023-05-18T13:12:00.237Z,15.40
2023-05-18T13:14:38.995Z,15.51
2023-05-18T13:17:06.310Z,15.59
2023-05-18T13:19:36.886Z,15.63
2023-05-18T13:22:04.981Z,15.67
2023-05-18T13:24:35.328Z,15.79
2023-05-18T13:27:05.481Z,15.86
2023-05-18T13:29:35.454Z,15.86
2023-05-18T13:32:03.086Z,15.90
2023-05-18T13:34:37.991Z,16.02
2023-05-18T13:37:05.523Z,16.03
2023-05-18T13:39:35.620Z,16.10
2023-05-18T13:42:05.010Z,16.18
2023-05-18T13:44:32.382Z,16.14
2023-05-18T13:47:04.066Z,16.12
2023-05-18T13:49:31.175Z,16.06
2023-05-18T13:52:00.734Z,16.12
2023-05-18T13:54:30.967Z,16.13
2023-05-18T13:56:58.298Z,16.13
2023-05-18T13:59:27.796Z,16.01
2023-05-18T14:01:55.125Z,15.97
2023-05-18T14:04:25.226Z,15.97
2023-05-18T14:06:56.154Z,15.97
2023-05-18T14:09:30.402Z,16.03
2023-05-18T14:11:58.551Z,15.96
2023-05-18T14:14:28.113Z,15.97
2023-05-18T14:16:55.737Z,15.91
2023-05-18T14:19:22.810Z,15.83
2023-05-18T14:21:50.088Z,15.76
2023-05-18T14:24:20.357Z,15.65
2023-05-18T14:26:53.325Z,15.64
2023-05-18T14:29:22.361Z,15.63
2023-05-18T14:31:53.085Z,15.57
2023-05-18T14:34:20.488Z,15.60
2023-05-18T14:36:51.086Z,15.54
2023-05-18T14:39:18.685Z,15.49
2023-05-18T14:41:46.917Z,15.56
2023-05-18T14:44:17.239Z,15.58
2023-05-18T14:46:45.316Z,15.58
2023-05-18T14:49:13.036Z,15.59
2023-05-18T14:51:40.507Z,15.51
2023-05-18T14:54:14.463Z,15.44
2023-05-18T14:56:41.855Z,15.42
2023-05-18T14:59:15.140Z,15.46
2023-05-18T15:01:42.729Z,15.44
2023-05-18T15:04:09.772Z,15.43
2023-05-18T15:06:37.865Z,15.42
2023-05-18T15:09:06.562Z,15.41
2023-05-18T15:11:34.066Z,15.41
2023-05-18T15:14:02.288Z,15.46
2023-05-18T15:16:29.844Z,15.46
2023-05-18T15:18:56.694Z,15.39
2023-05-18T15:21:26.659Z,15.43
2023-05-18T15:23:53.569Z,15.42
2023-05-18T15:26:21.548Z,15.37
2023-05-18T15:28:49.430Z,15.37
2023-05-18T15:31:16.936Z,15.37
2023-05-18T15:33:46.968Z,15.29
2023-05-18T15:36:14.382Z,15.25
2023-05-18T15:38:41.493Z,15.25
2023-05-18T15:41:08.945Z,15.17
2023-05-18T15:43:37.035Z,15.08
2023-05-18T15:46:05.123Z,15.02
2023-05-18T15:48:32.427Z,14.94
2023-05-18T15:51:00.039Z,14.98
2023-05-18T15:53:29.958Z,14.93
2023-05-18T15:55:59.302Z,14.89
2023-05-18T15:58:27.128Z,14.81
2023-05-18T16:00:54.172Z,14.76
2023-05-18T16:03:21.487Z,14.77
2023-05-18T16:05:48.551Z,14.81
2023-05-18T16:08:16.008Z,14.80
2023-05-18T16:10:42.992Z,14.76
2023-05-18T16:13:10.892Z,14.79
2023-05-18T16:15:37.631Z,14.81
2023-05-18T16:18:05.527Z,14.69
2023-05-18T16:20:32.937Z,14.56
2023-05-18T16:23:00.406Z,14.56
2023-05-18T16:25:29.051Z,14.51
2023-05-18T16:27:59.546Z,14.54
2023-05-18T16:30:30.297Z,14.59
2023-05-18T16:33:21.247Z,14.53
2023-05-18T16:35:48.617Z,14.50
2023-05-18T16:38:16.184Z,14.45
2023-05-18T16:40:43.533Z,14.41
2023-05-18T16:43:14.003Z,14.44
2023-05-18T16:45:42.424Z,14.42
2023-05-18T16:48:10.054Z,14.42
2023-05-18T16:50:43.957Z,14.41
2023-05-18T16:53:10.891Z,14.43
2023-05-18T16:55:38.424Z,14.35
2023-05-18T16:58:05.671Z,14.28
2023-05-18T17:00:32.627Z,14.27
2023-05-18T17:02:59.726Z,14.24
2023-05-18T17:05:26.766Z,14.23
2023-05-18T17:07:53.607Z,14.18
2023-05-18T17:10:21.033Z,14.13
2023-05-18T17:12:48.144Z,14.15
2023-05-18T17:15:16.580Z,14.14
2023-05-18T17:17:44.774Z,14.14
2023-05-18T17:20:17.457Z,14.07
2023-05-18T17:22:48.384Z,14.05
2023-05-18T17:25:15.797Z,14.03
2023-05-18T17:27:43.515Z,14.04
2023-05-18T17:30:12.198Z,14.03
2023-05-18T17:32:44.754Z,13.98
2023-05-18T17:35:14.269Z,13.99
2023-05-18T17:37:42.224Z,13.93
2023-05-18T17:40:13.757Z,13.87
2023-05-18T17:42:40.991Z,13.88
2023-05-18T17:45:11.346Z,13.82
2023-05-18T17:47:46.259Z,13.80
2023-05-18T17:50:16.607Z,13.77
2023-05-18T17:52:43.799Z,13.74
2023-05-18T17:55:11.644Z,13.75
2023-05-18T17:57:45.545Z,13.78
2023-05-18T18:00:23.505Z,13.75
2023-05-18T18:02:53.152Z,13.72
2023-05-18T18:05:23.691Z,13.66
2023-05-18T18:07:51.388Z,13.70
2023-05-18T18:10:19.795Z,13.67
2023-05-18T18:12:47.476Z,13.69
2023-05-18T18:15:14.350Z,13.61
2023-05-18T18:17:41.233Z,13.63
2023-05-18T18:20:09.859Z,13.66
2023-05-18T18:22:40.153Z,13.65
2023-05-18T18:25:15.149Z,13.70
2023-05-18T18:27:42.017Z,13.61
2023-05-18T18:30:24.880Z,13.61
2023-05-18T18:32:52.398Z,13.51
2023-05-18T18:38:01.068Z,13.50
2023-05-18T18:40:28.043Z,13.54
2023-05-18T18:42:54.812Z,13.46
2023-05-18T18:45:22.088Z,13.43
2023-05-18T18:47:49.082Z,13.42
2023-05-18T18:50:16.053Z,13.33
2023-05-18T18:52:42.930Z,13.33
2023-05-18T18:55:09.820Z,13.30
2023-05-18T18:57:36.648Z,13.34
2023-05-18T19:00:05.002Z,13.35
2023-05-18T19:02:32.016Z,13.37
2023-05-18T19:04:58.880Z,13.40
2023-05-18T19:07:26.019Z,13.36
2023-05-18T19:09:52.812Z,13.46
2023-05-18T19:12:19.670Z,13.42
2023-05-18T19:14:46.564Z,13.40
2023-05-18T19:17:13.402Z,13.33
2023-05-18T19:19:40.431Z,13.36
2023-05-18T19:22:07.369Z,13.34
2023-05-18T19:24:34.461Z,13.37
2023-05-18T19:27:01.702Z,13.30
2023-05-18T19:29:32.415Z,13.31
2023-05-18T19:31:59.228Z,13.29
2023-05-18T19:34:26.134Z,13.29
2023-05-18T19:36:52.976Z,13.26
2023-05-18T19:39:19.966Z,13.23
2023-05-18T19:41:47.062Z,13.20
2023-05-18T19:44:15.185Z,13.19
2023-05-18T19:46:42.050Z,13.18
2023-05-18T19:49:10.315Z,13.23
2023-05-18T19:51:38.649Z,13.20
2023-05-18T19:54:05.550Z,13.19
2023-05-18T19:56:32.370Z,13.19
2023-05-18T19:58:59.203Z,13.20
2023-05-18T20:01:26.287Z,13.20
2023-05-18T20:03:53.213Z,13.19
2023-05-18T20:06:20.201Z,13.19
2023-05-18T20:08:48.081Z,13.11
2023-05-18T20:11:15.182Z,13.15
2023-05-18T20:13:46.181Z,13.09
2023-05-18T20:16:13.779Z,13.08
2023-05-18T20:18:46.202Z,13.08
2023-05-18T20:21:20.762Z,13.11
2023-05-18T20:24:13.937Z,13.10
2023-05-18T20:26:42.419Z,13.02
2023-05-18T20:29:10.791Z,12.90
2023-05-18T20:32:07.730Z,12.95
2023-05-18T20:34:47.084Z,13.01
2023-05-18T20:37:16.863Z,12.92
2023-05-18T20:39:51.000Z,12.92
2023-05-18T20:42:24.805Z,12.89
2023-05-18T20:46:01.726Z,12.90
2023-05-18T20:51:34.962Z,12.79
2023-05-18T20:54:17.119Z,12.72
2023-05-18T20:56:45.356Z,12.67
2023-05-18T20:59:20.105Z,12.62
2023-05-18T21:02:08.941Z,12.67
2023-05-18T21:04:36.855Z,12.59
2023-05-18T21:07:06.261Z,12.61
2023-05-18T21:09:45.635Z,12.53
2023-05-18T21:12:13.476Z,12.42
2023-05-18T21:14:44.829Z,12.49
2023-05-18T21:17:22.235Z,12.42
2023-05-18T21:19:50.045Z,12.40
2023-05-18T21:22:17.564Z,12.30
2023-05-18T21:24:47.515Z,12.25
2023-05-18T21:27:15.136Z,12.25
2023-05-18T21:29:42.591Z,12.21
2023-05-18T21:32:10.943Z,12.18
2023-05-18T21:34:41.137Z,12.19
2023-05-18T21:37:10.322Z,12.15
2023-05-18T21:39:37.989Z,12.17
2023-05-18T21:42:05.315Z,12.23
2023-05-18T21:44:33.522Z,12.19
2023-05-18T21:47:06.733Z,12.20
2023-05-18T21:49:34.308Z,12.25
2023-05-18T21:52:04.167Z,12.27
2023-05-18T21:54:33.781Z,12.28
2023-05-18T21:57:02.061Z,12.29
2023-05-18T21:59:29.206Z,12.25
2023-05-18T22:01:58.265Z,12.36
2023-05-18T22:04:25.723Z,12.37
2023-05-18T22:07:00.555Z,12.41
2023-05-18T22:09:27.742Z,12.37
2023-05-18T22:11:59.409Z,12.36
2023-05-18T22:14:27.416Z,12.38
2023-05-18T22:16:58.961Z,12.46
2023-05-18T22:19:26.933Z,12.40
2023-05-18T22:21:55.215Z,12.39
2023-05-18T22:24:23.111Z,12.44
2023-05-18T22:26:50.637Z,12.51
2023-05-18T22:29:18.075Z,12.48
2023-05-18T22:31:48.861Z,12.51
2023-05-18T22:34:17.188Z,12.50
2023-05-18T22:36:45.229Z,12.49
2023-05-18T22:39:12.531Z,12.51
2023-05-18T22:41:39.493Z,12.57
2023-05-18T22:44:06.658Z,12.60
2023-05-18T22:46:35.543Z,12.64
2023-05-18T22:49:03.242Z,12.65
2023-05-18T22:51:30.677Z,12.67
2023-05-18T22:53:58.500Z,12.70
2023-05-18T22:56:25.967Z,12.66
2023-05-18T22:58:53.945Z,12.61
2023-05-18T23:01:22.586Z,12.57
2023-05-18T23:03:50.285Z,12.55
2023-05-18T23:06:17.583Z,12.60
2023-05-18T23:08:45.027Z,12.57
2023-05-18T23:11:12.431Z,12.56
2023-05-18T23:13:40.014Z,12.56
2023-05-18T23:16:10.880Z,12.54
2023-05-18T23:18:39.175Z,12.49
2023-05-18T23:21:09.908Z,12.47
2023-05-18T23:23:37.106Z,12.50
2023-05-18T23:26:04.071Z,12.47
2023-05-18T23:28:31.428Z,12.46
2023-05-18T23:30:58.929Z,12.51
2023-05-18T23:33:27.102Z,12.54
2023-05-18T23:35:56.710Z,12.57
2023-05-18T23:38:30.068Z,12.55
2023-05-18T23:40:57.371Z,12.52
2023-05-18T23:43:24.804Z,12.55
2023-05-18T23:45:53.601Z,12.53
2023-05-18T23:48:21.896Z,12.54
2023-05-18T23:50:51.530Z,12.60
2023-05-18T23:53:19.245Z,12.51
2023-05-18T23:55:46.788Z,12.48
2023-05-18T23:58:15.296Z,12.44
